TimeCDT,TemperatureF,Dew PointF,Humidity,Sea Level PressureIn,VisibilityMPH,Wind Direction,Wind SpeedMPH,Gust SpeedMPH,PrecipitationIn,Events,Conditions,WindDirDegrees,DateUTC
12:15 AM,39.2,26.6,61,30.16,10.0,WNW,3.5,-,N/A,,Overcast,300,2012-10-07 05:15:00
12:35 AM,39.2,26.6,61,30.16,10.0,Calm,Calm,-,N/A,,Overcast,0,2012-10-07 05:35:00
12:55 AM,37.4,26.6,65,30.16,10.0,Calm,Calm,-,N/A,,Overcast,0,2012-10-07 05:55:00
1:15 AM,37.4,26.6,65,30.16,10.0,NW,3.5,-,N/A,,Overcast,310,2012-10-07 06:15:00
1:35 AM,37.4,26.6,65,30.15,10.0,WNW,3.5,-,N/A,,Overcast,300,2012-10-07 06:35:00
1:55 AM,37.4,28.4,70,30.16,10.0,NW,4.6,-,N/A,,Overcast,320,2012-10-07 06:55:00
2:15 AM,37.4,28.4,70,30.15,10.0,Calm,Calm,-,N/A,,Overcast,0,2012-10-07 07:15:00
2:35 AM,37.4,28.4,70,30.15,10.0,West,4.6,-,N/A,,Overcast,280,2012-10-07 07:35:00
2:55 AM,37.4,28.4,70,30.14,10.0,West,4.6,-,N/A,,Overcast,280,2012-10-07 07:55:00
3:15 AM,37.4,28.4,70,30.14,10.0,West,4.6,-,N/A,,Overcast,280,2012-10-07 08:15:00
3:35 AM,37.4,28.4,70,30.14,10.0,West,5.8,-,N/A,,Overcast,280,2012-10-07 08:35:00
3:55 AM,37.4,28.4,70,30.14,10.0,WNW,4.6,-,N/A,,Overcast,290,2012-10-07 08:55:00
4:15 AM,37.4,28.4,70,30.14,10.0,West,5.8,-,N/A,,Overcast,280,2012-10-07 09:15:00
4:35 AM,37.4,28.4,70,30.14,10.0,WNW,4.6,-,N/A,,Overcast,290,2012-10-07 09:35:00
4:55 AM,37.4,28.4,70,30.14,10.0,West,5.8,-,N/A,,Overcast,270,2012-10-07 09:55:00
5:15 AM,37.4,28.4,70,30.14,10.0,West,3.5,-,N/A,,Overcast,280,2012-10-07 10:15:00
5:35 AM,37.4,28.4,70,30.13,10.0,West,4.6,-,N/A,,Overcast,280,2012-10-07 10:35:00
5:55 AM,37.4,28.4,70,30.13,10.0,West,3.5,-,N/A,,Overcast,260,2012-10-07 10:55:00
6:15 AM,37.4,28.4,70,30.13,10.0,West,4.6,-,N/A,,Overcast,270,2012-10-07 11:15:00
6:35 AM,37.4,28.4,70,30.13,10.0,WNW,4.6,-,N/A,,Overcast,290,2012-10-07 11:35:00
6:55 AM,35.6,28.4,75,30.13,10.0,West,5.8,-,N/A,,Overcast,270,2012-10-07 11:55:00
7:15 AM,35.6,26.6,70,30.13,10.0,West,5.8,-,N/A,,Overcast,280,2012-10-07 12:15:00
7:35 AM,35.6,26.6,70,30.13,10.0,West,5.8,-,N/A,,Overcast,270,2012-10-07 12:35:00
7:55 AM,37.4,28.4,70,30.14,10.0,West,5.8,-,N/A,,Overcast,280,2012-10-07 12:55:00
8:15 AM,39.2,28.4,65,30.14,10.0,West,5.8,-,N/A,,Overcast,270,2012-10-07 13:15:00
8:55 AM,41.0,26.6,57,30.14,10.0,West,5.8,-,N/A,,Overcast,280,2012-10-07 13:55:00
9:15 AM,41.0,26.6,57,30.14,10.0,West,6.9,-,N/A,,Overcast,270,2012-10-07 14:15:00
9:55 AM,42.8,26.6,53,30.13,10.0,WSW,5.8,-,N/A,,Clear,250,2012-10-07 14:55:00
10:15 AM,42.8,26.6,53,30.13,10.0,WSW,4.6,-,N/A,,Clear,240,2012-10-07 15:15:00
10:35 AM,44.6,24.8,46,30.12,10.0,NW,10.4,-,N/A,,Clear,310,2012-10-07 15:35:00
10:55 AM,46.4,21.2,37,30.12,10.0,West,10.4,17.3,N/A,,Scattered Clouds,270,2012-10-07 15:55:00
11:15 AM,46.4,19.4,34,30.11,10.0,WNW,10.4,23.0,N/A,,Scattered Clouds,300,2012-10-07 16:15:00
11:35 AM,46.4,19.4,34,30.11,10.0,WNW,9.2,18.4,N/A,,Clear,290,2012-10-07 16:35:00
11:55 AM,50.0,21.2,32,30.11,10.0,WNW,11.5,16.1,N/A,,Clear,300,2012-10-07 16:55:00
12:15 PM,48.2,19.4,32,30.10,10.0,West,9.2,-,N/A,,Scattered Clouds,270,2012-10-07 17:15:00
12:35 PM,50.0,19.4,30,30.10,10.0,WNW,9.2,17.3,N/A,,Scattered Clouds,300,2012-10-07 17:35:00
12:55 PM,50.0,19.4,30,30.09,10.0,WSW,11.5,16.1,N/A,,Clear,250,2012-10-07 17:55:00
1:15 PM,50.0,17.6,28,30.08,10.0,West,5.8,16.1,N/A,,Clear,270,2012-10-07 18:15:00
1:35 PM,51.8,19.4,28,30.07,10.0,WSW,11.5,18.4,N/A,,Scattered Clouds,250,2012-10-07 18:35:00
1:55 PM,51.8,19.4,28,30.07,10.0,WSW,6.9,18.4,N/A,,Scattered Clouds,250,2012-10-07 18:55:00
2:15 PM,50.0,19.4,30,30.06,10.0,West,9.2,18.4,N/A,,Scattered Clouds,280,2012-10-07 19:15:00
2:35 PM,51.8,17.6,26,30.06,10.0,WSW,10.4,18.4,N/A,,Clear,240,2012-10-07 19:35:00
2:55 PM,50.0,17.6,28,30.05,10.0,WSW,8.1,16.1,N/A,,Clear,250,2012-10-07 19:55:00
3:15 PM,50.0,17.6,28,30.05,10.0,West,8.1,-,N/A,,Scattered Clouds,260,2012-10-07 20:15:00
3:35 PM,51.8,17.6,26,30.04,10.0,WSW,9.2,-,N/A,,Clear,240,2012-10-07 20:35:00
3:55 PM,51.8,17.6,26,30.03,10.0,SW,10.4,-,N/A,,Clear,220,2012-10-07 20:55:00
4:15 PM,51.8,17.6,26,30.03,10.0,WSW,11.5,-,N/A,,Scattered Clouds,240,2012-10-07 21:15:00
4:35 PM,50.0,17.6,28,30.03,10.0,WSW,8.1,16.1,N/A,,Clear,240,2012-10-07 21:35:00
4:55 PM,50.0,17.6,28,30.03,10.0,WSW,6.9,-,N/A,,Clear,250,2012-10-07 21:55:00
5:15 PM,50.0,17.6,28,30.03,10.0,WSW,6.9,-,N/A,,Clear,240,2012-10-07 22:15:00
5:35 PM,50.0,17.6,28,30.02,10.0,WSW,5.8,-,N/A,,Clear,240,2012-10-07 22:35:00
5:55 PM,48.2,17.6,30,30.02,10.0,WSW,6.9,-,N/A,,Clear,240,2012-10-07 22:55:00
6:15 PM,46.4,17.6,32,30.02,10.0,WSW,4.6,-,N/A,,Clear,250,2012-10-07 23:15:00
6:35 PM,46.4,17.6,32,30.02,10.0,Calm,Calm,-,N/A,,Clear,0,2012-10-07 23:35:00
6:55 PM,44.6,19.4,37,30.02,10.0,Calm,Calm,-,N/A,,Clear,0,2012-10-07 23:55:00
7:15 PM,42.8,19.4,39,30.02,10.0,Calm,Calm,-,N/A,,Clear,0,2012-10-08 00:15:00
7:55 PM,39.2,21.2,49,30.03,10.0,Calm,Calm,-,N/A,,Clear,0,2012-10-08 00:55:00
8:15 PM,39.2,21.2,49,30.03,10.0,Calm,Calm,-,N/A,,Clear,0,2012-10-08 01:15:00
8:35 PM,41.0,21.2,45,30.03,10.0,Calm,Calm,-,N/A,,Clear,0,2012-10-08 01:35:00
8:55 PM,41.0,21.2,45,30.03,10.0,Calm,Calm,-,N/A,,Clear,0,2012-10-08 01:55:00
9:15 PM,42.8,21.2,42,30.03,10.0,SW,3.5,-,N/A,,Clear,220,2012-10-08 02:15:00
9:35 PM,42.8,19.4,39,30.04,10.0,SW,3.5,-,N/A,,Clear,230,2012-10-08 02:35:00
9:55 PM,41.0,21.2,45,30.04,10.0,Calm,Calm,-,N/A,,Clear,0,2012-10-08 02:55:00
10:15 PM,41.0,21.2,45,30.04,10.0,Calm,Calm,-,N/A,,Clear,0,2012-10-08 03:15:00
10:35 PM,41.0,21.2,45,30.04,10.0,Calm,Calm,-,N/A,,Clear,0,2012-10-08 03:35:00
10:55 PM,39.2,21.2,49,30.03,10.0,Calm,Calm,-,N/A,,Clear,0,2012-10-08 03:55:00
11:15 PM,37.4,21.2,52,30.03,10.0,Calm,Calm,-,N/A,,Clear,0,2012-10-08 04:15:00
11:35 PM,37.4,21.2,52,30.02,10.0,Calm,Calm,-,N/A,,Clear,0,2012-10-08 04:35:00
11:55 PM,37.4,21.2,52,30.02,10.0,Calm,Calm,-,N/A,,Clear,0,2012-10-08 04:55:00